Time;durP1;ratioP1;P1;durP2;ratioP2;P2;SDS_P1;SDS_P2;PMS_P1;PMS_P2;Temp;Humidity;BMP_temperature;BMP_pressure;BME280_temperature;BME280_humidity;BME280_pressure;Samples;Min_cycle;Max_cycle;Signal;HPM_P1;HPM_P2
2023/02/19 00:01:19;;;;;;;3.25;2.00;;;23.40;49.30;;;;;;5019583;28;20812;-68
2023/02/19 00:03:54;;;;;;;2.78;1.48;;;23.40;49.30;;;;;;5019372;28;20342;-68
2023/02/19 00:06:22;;;;;;;3.47;1.80;;;23.40;49.30;;;;;;5019478;28;20037;-68
2023/02/19 00:08:47;;;;;;;2.78;1.40;;;23.30;49.40;;;;;;5026547;28;20026;-67
2023/02/19 00:11:18;;;;;;;3.85;1.75;;;23.30;49.40;;;;;;5020788;28;20018;-68
2023/02/19 00:13:46;;;;;;;2.67;1.60;;;23.30;49.40;;;;;;5018270;28;20029;-68
2023/02/19 00:16:26;;;;;;;3.10;1.70;;;23.30;49.40;;;;;;5017611;28;20030;-68
2023/02/19 00:18:54;;;;;;;2.97;1.60;;;23.30;49.40;;;;;;5019861;28;20030;-68
2023/02/19 00:21:20;;;;;;;3.10;1.60;;;23.30;49.40;;;;;;5023458;28;20041;-67
2023/02/19 00:23:50;;;;;;;2.58;1.60;;;23.30;49.40;;;;;;5024021;28;20021;-67
2023/02/19 00:26:16;;;;;;;3.00;1.70;;;23.20;49.40;;;;;;5024027;28;20087;-68
2023/02/19 00:28:41;;;;;;;3.03;1.40;;;23.20;49.40;;;;;;5025152;28;20097;-67
2023/02/19 00:31:20;;;;;;;3.10;1.63;;;23.20;49.40;;;;;;5024000;28;20138;-68
2023/02/19 00:33:48;;;;;;;2.08;1.20;;;23.20;49.50;;;;;;5024065;28;20026;-68
2023/02/19 00:36:15;;;;;;;3.42;1.50;;;23.10;49.50;;;;;;5026697;28;20021;-67
2023/02/19 00:38:42;;;;;;;2.42;1.50;;;23.20;49.50;;;;;;5031277;28;20101;-67
2023/02/19 00:41:18;;;;;;;2.75;1.60;;;23.10;49.50;;;;;;5037553;28;20045;-68
2023/02/19 00:44:10;;;;;;;2.75;1.33;;;23.10;49.50;;;;;;5022406;28;20033;-68
2023/02/19 00:46:41;;;;;;;3.10;1.50;;;23.10;49.60;;;;;;5018647;28;20030;-68
2023/02/19 00:49:12;;;;;;;2.50;1.40;;;23.00;49.50;;;;;;5022297;28;20025;-68
2023/02/19 00:51:37;;;;;;;2.72;1.73;;;23.00;49.60;;;;;;5024805;28;20022;-68
2023/02/19 00:54:05;;;;;;;2.38;1.40;;;23.00;49.60;;;;;;5024892;28;20100;-68
2023/02/19 00:56:30;;;;;;;2.40;1.35;;;23.00;49.60;;;;;;5022304;28;20116;-68
2023/02/19 00:58:56;;;;;;;2.60;1.52;;;23.00;49.60;;;;;;5026501;28;20449;-68
2023/02/19 01:01:22;;;;;;;2.60;1.50;;;23.00;49.60;;;;;;5022008;28;20022;-69
2023/02/19 01:03:47;;;;;;;2.63;1.40;;;23.00;49.70;;;;;;5023483;28;20092;-67
2023/02/19 01:06:15;;;;;;;2.20;1.08;;;23.00;49.70;;;;;;5023938;28;20065;-68
2023/02/19 01:08:41;;;;;;;2.40;1.42;;;22.90;49.60;;;;;;5022127;28;20044;-68
2023/02/19 01:11:08;;;;;;;2.75;1.27;;;22.90;49.60;;;;;;5021189;28;20026;-68
2023/02/19 01:13:34;;;;;;;2.20;1.30;;;22.90;49.60;;;;;;5021547;28;20084;-67
2023/02/19 01:16:18;;;;;;;2.85;1.20;;;22.90;49.70;;;;;;5027664;28;20452;-68
2023/02/19 01:18:46;;;;;;;1.95;1.10;;;22.90;49.70;;;;;;5025987;28;20240;-68
2023/02/19 01:21:15;;;;;;;2.55;1.33;;;22.90;49.70;;;;;;5022382;28;20029;-68
2023/02/19 01:23:41;;;;;;;2.17;1.00;;;22.90;49.70;;;;;;5019716;28;20108;-68
2023/02/19 01:26:10;;;;;;;1.55;0.98;;;22.90;49.70;;;;;;5023018;28;20132;-68
2023/02/19 01:28:35;;;;;;;3.13;1.48;;;22.90;49.80;;;;;;5020164;28;20101;-69
2023/02/19 01:31:03;;;;;;;2.42;1.25;;;22.80;49.80;;;;;;5018055;28;20113;-68
2023/02/19 01:33:29;;;;;;;1.88;1.00;;;22.80;49.80;;;;;;5019581;28;20052;-68
2023/02/19 01:35:55;;;;;;;1.75;1.15;;;22.80;49.80;;;;;;5020432;28;20034;-68
2023/02/19 01:38:21;;;;;;;2.22;1.25;;;22.80;49.80;;;;;;5024816;28;20041;-68
2023/02/19 01:40:54;;;;;;;2.22;1.17;;;22.80;49.80;;;;;;5018242;28;20120;-68
2023/02/19 01:43:20;;;;;;;2.42;1.20;;;22.80;49.80;;;;;;5019077;28;20033;-68
2023/02/19 01:45:46;;;;;;;2.13;1.20;;;22.80;49.80;;;;;;5020685;28;20338;-68
2023/02/19 01:48:17;;;;;;;1.83;1.00;;;22.70;50.30;;;;;;5020150;28;20490;-67
2023/02/19 01:51:05;;;;;;;2.22;1.27;;;22.70;49.90;;;;;;5021682;28;20413;-67
2023/02/19 01:53:36;;;;;;;1.75;1.10;;;22.70;49.90;;;;;;5024292;28;20014;-68
2023/02/19 01:56:03;;;;;;;1.95;1.10;;;22.70;49.90;;;;;;5020535;28;20088;-68
2023/02/19 01:58:32;;;;;;;1.83;1.10;;;22.70;49.90;;;;;;5022523;28;20428;-68
2023/02/19 02:01:00;;;;;;;2.22;1.20;;;22.70;50.00;;;;;;5019110;28;20121;-67
2023/02/19 02:03:27;;;;;;;1.30;0.90;;;22.70;49.90;;;;;;5020568;28;20033;-67
2023/02/19 02:06:05;;;;;;;1.70;0.93;;;22.60;49.90;;;;;;5020496;28;20398;-67
2023/02/19 02:11:17;;;;;;;1.98;1.00;;;22.60;49.90;;;;;;5017814;28;20049;-67
2023/02/19 02:13:43;;;;;;;1.75;1.05;;;22.60;49.90;;;;;;5019147;28;20112;-67
2023/02/19 02:16:22;;;;;;;1.45;0.82;;;22.60;49.90;;;;;;5021979;28;20425;-67
2023/02/19 02:18:48;;;;;;;;;;;22.60;49.90;;;;;;5021524;28;20034;-67
2023/02/19 02:21:35;;;;;;;1.70;1.05;;;22.60;50.00;;;;;;5020575;28;20305;-67
2023/02/19 02:24:35;;;;;;;1.70;0.93;;;22.60;50.00;;;;;;5021694;28;20215;-67
2023/02/19 02:27:23;;;;;;;1.08;0.80;;;22.60;50.00;;;;;;5016545;28;20084;-67
2023/02/19 02:30:07;;;;;;;1.33;0.90;;;22.50;50.00;;;;;;5020291;28;20353;-67
2023/02/19 02:32:55;;;;;;;1.70;0.90;;;22.60;50.10;;;;;;5022402;28;20064;-67
2023/02/19 02:35:33;;;;;;;1.70;0.98;;;22.50;50.00;;;;;;5019462;28;20136;-67
2023/02/19 02:38:03;;;;;;;1.77;1.00;;;22.50;50.00;;;;;;5018388;28;20029;-67
2023/02/19 02:40:30;;;;;;;1.95;1.10;;;22.50;50.00;;;;;;5019707;28;20033;-67
2023/02/19 02:42:59;;;;;;;1.35;0.75;;;22.50;50.60;;;;;;5020185;28;20022;-68
2023/02/19 02:45:35;;;;;;;1.70;1.00;;;22.50;50.00;;;;;;5021206;28;20037;-67
2023/02/19 02:48:16;;;;;;;2.33;1.13;;;22.50;50.10;;;;;;5023073;28;20393;-67
2023/02/19 02:50:57;;;;;;;1.50;0.90;;;22.50;50.10;;;;;;5019164;28;20018;-67
2023/02/19 02:56:30;;;;;;;1.60;0.82;;;22.40;50.10;;;;;;5021628;28;20513;-67
2023/02/19 02:58:58;;;;;;;1.55;0.90;;;22.40;50.10;;;;;;5021039;28;20491;-68
2023/02/19 03:08:04;;;;;;;1.38;0.90;;;22.40;50.10;;;;;;5019572;28;20553;-67
2023/02/19 03:10:37;;;;;;;1.48;0.98;;;22.40;50.10;;;;;;5015719;28;20044;-68
2023/02/19 03:21:53;;;;;;;1.88;1.00;;;22.30;50.10;;;;;;5017567;28;20049;-67
2023/02/19 03:27:09;;;;;;;1.57;0.97;;;22.30;50.10;;;;;;5019707;28;20028;-67
2023/02/19 03:29:38;;;;;;;1.92;1.00;;;22.30;50.10;;;;;;5021024;28;20052;-68
2023/02/19 03:32:09;;;;;;;1.50;0.93;;;22.30;50.20;;;;;;5021334;28;20076;-67
2023/02/19 03:34:44;;;;;;;2.05;1.00;;;22.30;50.20;;;;;;5018523;28;20107;-67
2023/02/19 03:37:17;;;;;;;1.38;0.80;;;22.30;50.20;;;;;;5019412;28;20474;-67
2023/02/19 03:39:44;;;;;;;1.67;1.00;;;22.30;50.20;;;;;;5019388;28;20030;-67
2023/02/19 03:42:25;;;;;;;1.58;0.80;;;22.30;50.20;;;;;;5018047;28;20022;-67
2023/02/19 03:45:19;;;;;;;1.60;0.98;;;22.30;50.20;;;;;;5021273;28;20022;-67
2023/02/19 03:48:06;;;;;;;1.08;0.80;;;22.30;50.20;;;;;;5019726;28;20095;-67
2023/02/19 03:51:03;;;;;;;1.52;1.00;;;22.30;50.20;;;;;;5022322;28;20030;-67
2023/02/19 03:54:03;;;;;;;1.45;0.80;;;22.30;50.20;;;;;;5020878;28;20033;-67
2023/02/19 03:56:35;;;;;;;1.50;0.68;;;22.20;50.10;;;;;;4999454;28;20041;-66
2023/02/19 03:59:09;;;;;;;1.40;0.80;;;22.20;50.20;;;;;;5019494;28;20030;-67
2023/02/19 04:01:46;;;;;;;1.70;0.85;;;22.20;50.20;;;;;;5017731;28;20036;-66
2023/02/19 04:04:15;;;;;;;1.40;0.82;;;22.20;50.70;;;;;;5021582;28;20107;-69
2023/02/19 04:06:45;;;;;;;1.02;0.68;;;22.20;50.20;;;;;;5017990;28;20114;-67
2023/02/19 04:09:13;;;;;;;0.98;0.70;;;22.20;50.20;;;;;;5018870;28;20037;-69
2023/02/19 04:11:39;;;;;;;1.65;0.93;;;22.20;50.20;;;;;;5017868;28;20021;-67
2023/02/19 04:14:19;;;;;;;1.00;0.77;;;22.20;50.20;;;;;;5020026;28;20025;-67
2023/02/19 04:16:50;;;;;;;1.40;0.90;;;22.20;50.20;;;;;;5019058;28;20037;-68
2023/02/19 04:19:19;;;;;;;1.15;0.70;;;22.20;50.20;;;;;;5016412;28;20108;-68
2023/02/19 04:21:46;;;;;;;1.00;0.70;;;22.20;50.20;;;;;;5017741;28;20025;-68
2023/02/19 04:24:23;;;;;;;1.33;0.75;;;22.20;50.20;;;;;;5014697;28;20030;-68
2023/02/19 04:26:48;;;;;;;1.15;0.88;;;22.20;50.60;;;;;;5020878;28;20116;-67
2023/02/19 04:29:14;;;;;;;1.05;0.70;;;22.20;50.30;;;;;;5021322;28;20842;-67
2023/02/19 04:31:39;;;;;;;1.15;0.80;;;22.10;50.20;;;;;;5019192;28;20080;-67
2023/02/19 04:34:05;;;;;;;1.45;0.90;;;22.20;50.30;;;;;;5018470;28;20026;-67
2023/02/19 04:36:31;;;;;;;2.05;0.93;;;22.10;50.20;;;;;;5016412;28;20033;-67
2023/02/19 04:38:57;;;;;;;1.30;0.80;;;22.10;50.20;;;;;;5016099;28;20034;-67
2023/02/19 04:41:23;;;;;;;1.42;0.88;;;22.10;50.20;;;;;;5017863;28;20390;-67
2023/02/19 04:43:48;;;;;;;0.93;0.70;;;22.10;50.30;;;;;;5018273;28;20143;-67
2023/02/19 04:46:14;;;;;;;1.50;0.88;;;22.10;50.20;;;;;;5016338;28;20033;-67
2023/02/19 04:48:41;;;;;;;0.80;0.70;;;22.10;50.20;;;;;;5017823;28;20544;-67
2023/02/19 04:51:08;;;;;;;1.00;0.70;;;22.10;50.20;;;;;;5026102;28;20037;-67
2023/02/19 04:53:34;;;;;;;0.88;0.70;;;22.10;50.20;;;;;;5019378;28;20112;-68
2023/02/19 04:56:07;;;;;;;0.82;0.63;;;22.10;50.30;;;;;;5016394;28;20059;-68
2023/02/19 04:58:34;;;;;;;1.08;0.70;;;22.10;50.20;;;;;;5017486;28;20025;-68
2023/02/19 05:00:59;;;;;;;1.20;0.80;;;22.10;50.30;;;;;;5020345;28;20046;-67
2023/02/19 05:03:25;;;;;;;0.90;0.70;;;22.10;50.30;;;;;;5019252;28;20051;-68
2023/02/19 05:05:50;;;;;;;0.90;0.70;;;22.10;50.30;;;;;;5022076;28;20444;-68
2023/02/19 05:08:16;;;;;;;1.20;0.70;;;22.10;50.30;;;;;;5022820;28;20029;-68
2023/02/19 05:10:42;;;;;;;1.33;0.70;;;22.10;50.30;;;;;;5022845;28;20025;-68
2023/02/19 05:13:07;;;;;;;1.67;0.80;;;22.10;50.30;;;;;;5022063;28;20029;-68
2023/02/19 05:15:33;;;;;;;1.00;0.60;;;22.00;50.30;;;;;;5023696;28;20512;-68
2023/02/19 05:17:59;;;;;;;1.02;0.60;;;22.00;50.30;;;;;;5023105;28;20057;-67
2023/02/19 05:20:24;;;;;;;0.98;0.80;;;22.10;50.40;;;;;;5023300;28;20425;-67
2023/02/19 05:22:50;;;;;;;0.93;0.70;;;22.00;50.30;;;;;;5023813;28;20204;-66
2023/02/19 05:25:16;;;;;;;0.98;0.70;;;22.10;50.40;;;;;;5021215;28;20149;-67
2023/02/19 05:27:41;;;;;;;0.93;0.60;;;22.00;50.30;;;;;;5021689;28;20037;-67
2023/02/19 05:30:07;;;;;;;1.00;0.70;;;22.00;50.30;;;;;;5017841;28;20053;-69
2023/02/19 05:32:37;;;;;;;1.00;0.70;;;22.00;50.40;;;;;;5023928;28;20553;-69
2023/02/19 05:35:03;;;;;;;1.30;0.82;;;22.00;50.40;;;;;;5022376;28;20037;-66
2023/02/19 05:37:28;;;;;;;1.60;0.90;;;22.00;50.40;;;;;;5022920;28;20033;-67
2023/02/19 05:39:54;;;;;;;1.17;0.80;;;22.00;50.30;;;;;;5018621;28;20451;-67
2023/02/19 05:42:19;;;;;;;1.02;0.80;;;22.00;50.30;;;;;;5024182;28;20030;-66
2023/02/19 05:44:45;;;;;;;1.08;0.80;;;22.00;50.30;;;;;;5020624;28;20041;-66
2023/02/19 05:47:11;;;;;;;1.40;0.90;;;22.00;50.40;;;;;;5022032;28;20041;-69
2023/02/19 05:49:36;;;;;;;1.38;0.80;;;22.00;50.40;;;;;;5021364;28;20116;-66
2023/02/19 05:52:03;;;;;;;1.10;0.70;;;22.00;50.40;;;;;;5028921;28;20018;-66
2023/02/19 05:54:29;;;;;;;0.85;0.60;;;22.00;50.90;;;;;;5020455;28;20507;-67
2023/02/19 05:56:55;;;;;;;1.00;0.70;;;22.00;50.40;;;;;;5017446;28;20033;-66
2023/02/19 05:59:23;;;;;;;1.52;0.70;;;22.00;50.40;;;;;;5020347;28;20033;-66
2023/02/19 06:01:51;;;;;;;1.02;0.70;;;22.00;50.50;;;;;;5021958;28;20033;-68
2023/02/19 06:04:18;;;;;;;1.23;0.75;;;22.00;50.50;;;;;;5036639;28;20026;-67
2023/02/19 06:06:44;;;;;;;0.90;0.70;;;21.90;50.50;;;;;;5020768;28;20018;-67
2023/02/19 06:09:10;;;;;;;0.80;0.70;;;21.90;50.40;;;;;;5021958;28;20025;-67
2023/02/19 06:11:37;;;;;;;1.40;0.82;;;22.00;50.50;;;;;;5018988;28;20397;-69
2023/02/19 06:14:03;;;;;;;1.10;0.80;;;22.00;50.50;;;;;;5016737;28;20489;-66
2023/02/19 06:16:31;;;;;;;1.23;0.77;;;22.00;50.50;;;;;;5018909;28;20030;-68
2023/02/19 06:18:57;;;;;;;0.95;0.70;;;22.00;50.50;;;;;;5021697;28;20022;-67
2023/02/19 06:21:22;;;;;;;0.73;0.60;;;22.00;50.50;;;;;;5021141;28;20416;-67
2023/02/19 06:23:48;;;;;;;1.55;0.80;;;21.90;50.50;;;;;;5019703;28;20033;-68
2023/02/19 06:26:19;;;;;;;0.60;0.50;;;21.90;50.50;;;;;;5023411;28;20037;-69
2023/02/19 06:28:47;;;;;;;0.90;0.80;;;21.90;51.00;;;;;;5019180;28;20034;-68
2023/02/19 06:31:13;;;;;;;1.23;0.80;;;21.90;50.50;;;;;;5022348;28;20109;-67
2023/02/19 06:33:39;;;;;;;0.93;0.70;;;21.90;50.50;;;;;;5020953;28;20101;-67
2023/02/19 06:36:10;;;;;;;1.00;0.70;;;21.90;50.50;;;;;;5020582;28;20034;-68
2023/02/19 06:38:36;;;;;;;0.90;0.80;;;21.90;50.50;;;;;;5019148;28;20105;-67
2023/02/19 06:41:03;;;;;;;0.90;0.70;;;21.90;50.50;;;;;;5021746;28;20113;-69
2023/02/19 06:43:31;;;;;;;1.08;0.70;;;21.90;50.60;;;;;;5019772;28;20026;-67
2023/02/19 06:45:58;;;;;;;0.95;0.65;;;21.90;50.50;;;;;;5022255;28;20079;-68
2023/02/19 06:48:28;;;;;;;1.08;0.70;;;21.90;50.60;;;;;;5020388;28;20636;-67
2023/02/19 06:50:54;;;;;;;0.98;0.70;;;21.80;50.50;;;;;;5020914;28;20057;-68
2023/02/19 06:53:19;;;;;;;1.35;0.70;;;21.80;50.60;;;;;;5027868;28;20060;-68
2023/02/19 06:55:55;;;;;;;1.00;0.63;;;21.90;50.60;;;;;;5022524;28;20136;-68
2023/02/19 06:58:21;;;;;;;1.00;0.80;;;21.90;50.60;;;;;;5019892;28;20044;-68
2023/02/19 07:00:46;;;;;;;0.60;0.60;;;21.80;50.50;;;;;;5032869;28;20133;-67
2023/02/19 07:03:12;;;;;;;0.80;0.70;;;21.80;50.60;;;;;;5021117;28;20040;-68
2023/02/19 07:05:37;;;;;;;1.13;0.70;;;21.80;50.60;;;;;;5018925;28;20053;-68
2023/02/19 07:08:03;;;;;;;0.90;0.60;;;21.90;50.60;;;;;;5018947;28;20334;-69
2023/02/19 07:10:29;;;;;;;1.48;0.65;;;21.80;50.60;;;;;;5019295;28;20034;-68
2023/02/19 07:12:54;;;;;;;0.80;0.60;;;21.80;50.60;;;;;;5018646;28;20026;-68
2023/02/19 07:15:20;;;;;;;1.00;0.70;;;21.80;50.60;;;;;;5023663;28;20509;-68
2023/02/19 07:17:45;;;;;;;0.80;0.60;;;21.80;50.60;;;;;;5017320;28;20033;-68
2023/02/19 07:20:11;;;;;;;0.80;0.60;;;21.80;50.60;;;;;;5022794;28;20033;-69
2023/02/19 07:22:37;;;;;;;0.98;0.70;;;21.80;50.60;;;;;;5017090;28;20061;-68
2023/02/19 07:25:03;;;;;;;1.27;0.65;;;21.80;50.60;;;;;;5019926;28;20448;-68
2023/02/19 07:27:28;;;;;;;0.95;0.60;;;21.80;50.60;;;;;;5020164;28;20080;-68
2023/02/19 07:29:54;;;;;;;0.90;0.70;;;21.80;50.60;;;;;;5022247;28;20123;-68
2023/02/19 07:32:19;;;;;;;0.90;0.60;;;21.80;50.60;;;;;;5019998;28;20060;-68
2023/02/19 07:34:45;;;;;;;0.77;0.50;;;21.80;50.60;;;;;;5019952;28;20029;-68
2023/02/19 07:37:10;;;;;;;0.73;0.52;;;21.80;50.60;;;;;;5020855;28;20034;-67
2023/02/19 07:39:36;;;;;;;0.70;0.55;;;21.80;50.60;;;;;;5022288;28;20393;-67
2023/02/19 07:42:02;;;;;;;0.90;0.60;;;21.80;50.60;;;;;;5021905;28;20152;-68
2023/02/19 07:44:27;;;;;;;0.93;0.68;;;21.80;50.70;;;;;;5019643;28;20519;-69
2023/02/19 07:46:53;;;;;;;0.73;0.55;;;21.80;50.70;;;;;;5020768;28;20037;-68
2023/02/19 07:49:18;;;;;;;0.90;0.60;;;21.80;50.60;;;;;;5021318;28;20025;-73
2023/02/19 07:51:44;;;;;;;0.60;0.55;;;21.80;50.60;;;;;;5017790;28;20025;-68
2023/02/19 07:54:10;;;;;;;0.65;0.60;;;21.80;50.70;;;;;;5020930;28;20084;-68
2023/02/19 07:56:36;;;;;;;0.65;0.50;;;21.80;50.70;;;;;;5020714;28;20025;-69
2023/02/19 07:59:01;;;;;;;0.50;0.50;;;21.70;50.60;;;;;;5017131;28;20044;-68
2023/02/19 08:04:13;;;;;;;0.82;0.65;;;21.70;50.70;;;;;;5019292;28;20616;-69
2023/02/19 08:06:39;;;;;;;1.02;0.60;;;21.70;50.70;;;;;;5019025;28;20041;-68
2023/02/19 08:09:05;;;;;;;1.02;0.75;;;21.70;50.70;;;;;;5019771;28;20026;-69
2023/02/19 08:14:15;;;;;;;1.17;0.70;;;21.70;50.70;;;;;;5021433;28;20156;-68
2023/02/19 08:16:50;;;;;;;0.75;0.60;;;21.70;50.70;;;;;;5020772;28;20116;-68
2023/02/19 08:19:16;;;;;;;0.98;0.70;;;21.70;50.70;;;;;;5018822;28;20022;-68
2023/02/19 08:21:42;;;;;;;1.05;0.60;;;21.70;50.70;;;;;;5020640;28;20033;-69
2023/02/19 08:24:08;;;;;;;1.38;0.70;;;21.70;50.70;;;;;;5015415;28;20037;-69
2023/02/19 08:26:34;;;;;;;0.75;0.60;;;21.70;50.70;;;;;;5019273;28;20030;-68
2023/02/19 08:29:00;;;;;;;0.93;0.60;;;21.70;50.70;;;;;;5018866;28;20088;-69
2023/02/19 08:31:26;;;;;;;1.20;0.60;;;21.70;50.70;;;;;;5017525;28;20490;-68
2023/02/19 08:33:52;;;;;;;1.40;0.70;;;21.70;50.70;;;;;;5020662;28;20022;-68
2023/02/19 08:36:17;;;;;;;1.98;0.80;;;21.70;50.70;;;;;;5020123;28;20116;-68
2023/02/19 08:38:43;;;;;;;2.85;0.80;;;21.70;50.70;;;;;;5022009;28;20100;-68
2023/02/19 08:41:11;;;;;;;0.65;0.55;;;21.70;50.70;;;;;;5023837;28;20053;-68
2023/02/19 08:43:37;;;;;;;1.25;0.70;;;21.70;50.70;;;;;;5020737;28;20030;-68
2023/02/19 08:46:03;;;;;;;1.02;0.70;;;21.70;50.70;;;;;;5021923;28;20538;-68
2023/02/19 08:48:29;;;;;;;2.00;0.80;;;21.70;50.70;;;;;;5037346;28;20033;-68
2023/02/19 08:51:02;;;;;;;0.82;0.60;;;21.70;50.70;;;;;;5022605;28;20032;-68
2023/02/19 08:53:29;;;;;;;1.35;0.70;;;21.70;50.70;;;;;;5022962;28;20079;-69
2023/02/19 08:55:55;;;;;;;1.30;0.70;;;21.70;50.80;;;;;;5020388;28;20088;-69
2023/02/19 08:58:21;;;;;;;1.15;0.70;;;21.70;50.70;;;;;;5022981;28;20029;-69
2023/02/19 09:00:47;;;;;;;2.20;0.85;;;21.60;50.70;;;;;;5020880;28;20029;-68
2023/02/19 09:03:13;;;;;;;1.55;0.80;;;21.70;50.80;;;;;;5021542;28;20030;-68
2023/02/19 09:05:39;;;;;;;0.93;0.60;;;21.60;50.70;;;;;;5019598;28;20473;-68
2023/02/19 09:08:05;;;;;;;2.15;0.88;;;21.70;50.70;;;;;;5021789;28;20097;-68
2023/02/19 09:10:30;;;;;;;2.05;0.90;;;21.60;50.70;;;;;;5036758;28;20117;-68
2023/02/19 09:12:56;;;;;;;1.92;0.90;;;21.60;50.70;;;;;;5023555;28;20030;-68
2023/02/19 09:15:21;;;;;;;1.77;0.90;;;21.60;50.70;;;;;;5024338;28;20040;-68
2023/02/19 09:17:53;;;;;;;2.20;0.95;;;21.60;50.70;;;;;;5020669;28;20523;-68
2023/02/19 09:20:19;;;;;;;2.25;1.00;;;21.60;50.70;;;;;;5019153;28;20139;-69
2023/02/19 09:22:45;;;;;;;1.85;0.85;;;21.60;50.70;;;;;;5023802;28;20033;-68
2023/02/19 09:25:11;;;;;;;2.20;0.95;;;21.60;50.70;;;;;;5021955;28;20025;-68
2023/02/19 09:27:36;;;;;;;1.83;1.10;;;21.60;50.70;;;;;;5017767;28;20397;-69
2023/02/19 09:30:02;;;;;;;1.50;0.80;;;21.60;50.70;;;;;;5017430;28;20787;-69
2023/02/19 09:32:32;;;;;;;1.92;0.90;;;21.60;50.70;;;;;;5023087;28;20401;-69
2023/02/19 09:34:58;;;;;;;1.33;1.00;;;21.60;50.70;;;;;;5021675;28;20084;-68
2023/02/19 09:37:27;;;;;;;1.70;0.82;;;21.60;50.70;;;;;;5019992;28;20030;-68
2023/02/19 09:39:53;;;;;;;1.70;0.80;;;21.60;50.70;;;;;;5016446;28;20022;-68
2023/02/19 09:42:23;;;;;;;1.73;0.80;;;21.60;50.80;;;;;;5019604;28;20489;-68
2023/02/19 09:44:52;;;;;;;2.03;0.82;;;21.60;50.70;;;;;;5020881;28;20033;-68
2023/02/19 09:47:25;;;;;;;1.27;0.85;;;21.60;50.70;;;;;;5020868;28;20030;-68
2023/02/19 09:49:54;;;;;;;1.42;0.80;;;21.60;50.70;;;;;;5015891;28;20101;-69
2023/02/19 09:52:28;;;;;;;1.98;0.95;;;21.60;50.80;;;;;;5023091;28;20021;-68
2023/02/19 09:54:58;;;;;;;1.00;0.80;;;21.60;50.80;;;;;;5019015;28;20082;-69
2023/02/19 09:57:24;;;;;;;;;;;21.50;50.70;;;;;;5021171;28;20595;-68
2023/02/19 09:59:56;;;;;;;1.65;0.88;;;21.60;50.70;;;;;;5020375;28;19981;-68
2023/02/19 10:02:24;;;;;;;1.20;0.80;;;21.60;50.70;;;;;;5019018;28;20030;-69
2023/02/19 10:04:51;;;;;;;1.98;0.90;;;21.60;50.70;;;;;;5018206;28;20480;-69
2023/02/19 10:07:18;;;;;;;2.55;1.13;;;21.50;50.70;;;;;;5021125;28;20017;-69
2023/02/19 10:09:52;;;;;;;1.50;0.82;;;21.50;50.70;;;;;;5023449;28;20030;-69
2023/02/19 10:12:23;;;;;;;2.08;0.98;;;21.50;50.70;;;;;;5023754;28;20038;-68
2023/02/19 10:14:52;;;;;;;1.98;0.85;;;21.50;50.80;;;;;;5020723;28;20037;-68
2023/02/19 10:17:29;;;;;;;1.43;0.80;;;21.50;50.70;;;;;;5018246;28;20029;-69
2023/02/19 10:19:56;;;;;;;2.30;0.90;;;21.50;50.70;;;;;;5020306;28;20097;-69
2023/02/19 10:22:21;;;;;;;1.80;0.80;;;21.50;50.80;;;;;;5019361;28;20426;-69
2023/02/19 10:24:51;;;;;;;1.95;0.90;;;21.50;50.70;;;;;;5016548;28;20028;-68
2023/02/19 10:27:18;;;;;;;1.83;0.90;;;21.50;50.70;;;;;;5017283;28;20045;-69
2023/02/19 10:29:45;;;;;;;1.63;0.80;;;21.50;50.70;;;;;;5020235;28;20457;-68
2023/02/19 10:32:19;;;;;;;1.35;0.80;;;21.50;50.70;;;;;;5017322;28;20038;-68
2023/02/19 10:34:46;;;;;;;1.70;0.90;;;21.50;50.70;;;;;;5017604;28;20536;-68
2023/02/19 10:37:17;;;;;;;1.63;0.85;;;21.50;50.70;;;;;;5016632;28;20133;-69
2023/02/19 10:39:43;;;;;;;2.03;0.90;;;21.50;50.70;;;;;;5019988;28;20037;-68
2023/02/19 10:42:22;;;;;;;1.77;0.82;;;21.50;50.70;;;;;;5018041;28;20032;-68
2023/02/19 10:44:50;;;;;;;;;;;21.50;50.70;;;;;;5020125;28;20488;-68
2023/02/19 10:47:19;;;;;;;1.53;0.70;;;21.50;50.80;;;;;;4983721;28;1112464;-69
2023/02/19 10:49:47;;;;;;;2.22;1.00;;;21.50;51.00;;;;;;5026914;28;20484;-68
2023/02/19 10:52:35;;;;;;;2.28;1.00;;;21.50;51.10;;;;;;5023654;28;20034;-71
2023/02/19 10:55:27;;;;;;;1.65;0.93;;;21.50;51.10;;;;;;5021240;28;20038;-69
2023/02/19 10:57:53;;;;;;;1.55;0.88;;;21.50;51.10;;;;;;5021223;28;20369;-69
2023/02/19 11:00:26;;;;;;;1.50;0.80;;;21.60;51.10;;;;;;5025991;28;20056;-69
2023/02/19 11:03:19;;;;;;;1.73;0.82;;;21.60;51.10;;;;;;5028569;28;20022;-69
2023/02/19 11:06:07;;;;;;;2.17;1.15;;;21.60;51.00;;;;;;5029754;28;20075;-69
2023/02/19 11:08:58;;;;;;;2.03;0.90;;;21.60;50.90;;;;;;5031656;28;20022;-68
2023/02/19 11:11:32;;;;;;;2.08;0.90;;;21.70;51.00;;;;;;5028296;28;20058;-68
2023/02/19 11:14:04;;;;;;;1.67;0.95;;;21.70;50.80;;;;;;5034026;28;20089;-70
2023/02/19 11:16:43;;;;;;;1.83;1.00;;;21.70;50.80;;;;;;5024570;28;20176;-69
2023/02/19 11:19:30;;;;;;;1.60;0.80;;;21.80;50.80;;;;;;5030037;28;20076;-71
2023/02/19 11:21:56;;;;;;;1.95;1.00;;;21.80;50.70;;;;;;5024422;28;20044;-69
2023/02/19 11:24:36;;;;;;;2.53;1.23;;;21.80;50.70;;;;;;5027696;28;20030;-69
2023/02/19 11:27:06;;;;;;;;;;;21.80;50.60;;;;;;5028931;28;20085;-69
2023/02/19 11:29:34;;;;;;;2.22;0.90;;;21.90;50.70;;;;;;5027328;28;19985;-68
2023/02/19 11:32:28;;;;;;;1.60;0.80;;;22.00;50.60;;;;;;5021550;28;20045;-69
2023/02/19 11:35:21;;;;;;;1.65;0.75;;;22.00;50.70;;;;;;5021748;28;20033;-69
2023/02/19 11:37:54;;;;;;;1.70;0.80;;;22.00;50.60;;;;;;5015065;28;20508;-68
2023/02/19 11:40:29;;;;;;;1.60;1.00;;;22.00;50.60;;;;;;5018783;28;20030;-69
2023/02/19 11:43:11;;;;;;;2.00;1.10;;;22.00;50.60;;;;;;5019937;28;20148;-68
2023/02/19 11:46:01;;;;;;;1.92;0.90;;;22.00;50.50;;;;;;5019487;28;20477;-68
2023/02/19 11:48:55;;;;;;;2.30;1.08;;;22.10;50.50;;;;;;5020676;28;20022;-68
2023/02/19 11:51:40;;;;;;;2.03;0.95;;;22.10;50.40;;;;;;5019488;28;20429;-68
2023/02/19 11:54:36;;;;;;;2.33;1.10;;;22.10;50.40;;;;;;5017998;28;20091;-68
2023/02/19 11:57:39;;;;;;;1.95;0.98;;;22.20;50.40;;;;;;5017937;28;20036;-68
2023/02/19 12:00:26;;;;;;;1.85;1.10;;;22.20;50.40;;;;;;5014968;28;20029;-68
2023/02/19 12:03:14;;;;;;;2.25;1.10;;;22.20;50.30;;;;;;5021835;28;20026;-68
2023/02/19 12:06:05;;;;;;;2.00;0.93;;;22.20;50.30;;;;;;5014578;28;20105;-68
2023/02/19 12:08:58;;;;;;;1.60;0.85;;;22.30;50.80;;;;;;5016420;28;20032;-68
2023/02/19 12:11:35;;;;;;;2.30;1.00;;;22.30;50.20;;;;;;5020024;28;20041;-69
2023/02/19 12:14:00;;;;;;;2.00;0.90;;;22.30;50.10;;;;;;5018691;28;20558;-68
2023/02/19 12:16:30;;;;;;;4.03;1.00;;;22.30;50.10;;;;;;5020280;28;20030;-68
2023/02/19 12:19:46;;;;;;;2.88;0.80;;;22.30;50.10;;;;;;5021751;28;20041;-70
2023/02/19 12:22:40;;;;;;;1.60;0.90;;;22.40;50.10;;;;;;5000973;28;20109;-69
2023/02/19 12:25:24;;;;;;;1.55;0.90;;;22.40;50.10;;;;;;5021822;28;20046;-69
2023/02/19 12:28:17;;;;;;;2.13;0.90;;;22.40;50.00;;;;;;5034835;28;20062;-69
2023/02/19 12:31:11;;;;;;;1.63;0.90;;;22.50;50.00;;;;;;5018865;28;20461;-69
2023/02/19 12:34:02;;;;;;;1.05;0.70;;;22.50;50.00;;;;;;5018045;28;20087;-70
2023/02/19 12:36:55;;;;;;;1.75;0.82;;;22.50;49.90;;;;;;5020886;28;20519;-68
2023/02/19 12:39:55;;;;;;;1.77;0.88;;;22.50;49.70;;;;;;5019883;28;20038;-70
2023/02/19 12:42:45;;;;;;;1.48;0.90;;;22.50;49.80;;;;;;5017560;28;20473;-69
2023/02/19 12:45:43;;;;;;;1.83;0.80;;;22.50;49.70;;;;;;5019213;28;20034;-71
2023/02/19 12:48:11;;;;;;;2.03;0.90;;;22.50;49.70;;;;;;5018796;28;20070;-70
2023/02/19 12:50:39;;;;;;;1.88;0.82;;;22.50;49.70;;;;;;5019317;28;20034;-70
2023/02/19 12:53:19;;;;;;;2.05;1.10;;;22.50;49.60;;;;;;5021936;28;20029;-70
2023/02/19 12:55:46;;;;;;;1.60;0.90;;;22.60;49.60;;;;;;5014878;28;20551;-70
2023/02/19 12:58:29;;;;;;;1.67;0.90;;;22.50;49.60;;;;;;5018340;28;20026;-69
2023/02/19 13:00:58;;;;;;;2.03;0.88;;;22.50;50.10;;;;;;5018815;28;20554;-69
2023/02/19 13:03:52;;;;;;;1.80;0.88;;;22.60;49.60;;;;;;5022016;28;20029;-68
2023/02/19 13:06:32;;;;;;;3.03;1.00;;;22.60;49.60;;;;;;5020178;28;20044;-68
2023/02/19 13:09:32;;;;;;;1.73;0.90;;;22.60;49.60;;;;;;5016492;28;20033;-69
2023/02/19 13:12:04;;;;;;;2.90;0.85;;;22.60;49.70;;;;;;5024644;28;20038;-68
2023/02/19 13:14:35;;;;;;;1.67;1.00;;;22.60;49.70;;;;;;5019758;28;20034;-68
2023/02/19 13:17:23;;;;;;;1.77;0.90;;;22.60;49.70;;;;;;5016577;28;20430;-70
2023/02/19 13:19:54;;;;;;;3.30;0.95;;;22.60;49.70;;;;;;5017343;28;20017;-68
2023/02/19 13:26:00;;;;;;;2.97;0.98;;;22.50;49.70;;;;;;5021914;28;20156;-68
2023/02/19 13:28:44;;;;;;;1.63;0.80;;;22.60;49.80;;;;;;5023356;28;20529;-68
2023/02/19 13:31:43;;;;;;;2.10;0.90;;;22.60;49.80;;;;;;5020973;28;20029;-69
2023/02/19 13:34:27;;;;;;;;;;;22.50;49.70;;;;;;5024028;28;20125;-69
2023/02/19 13:36:54;;;;;;;1.77;0.90;;;22.50;49.80;;;;;;5038925;28;19909;-69
2023/02/19 13:39:23;;;;;;;0.98;0.60;;;22.50;49.70;;;;;;5022679;28;20030;-69
2023/02/19 13:41:51;;;;;;;1.40;0.77;;;22.50;49.80;;;;;;5020669;28;20048;-68
2023/02/19 13:44:23;;;;;;;1.38;0.80;;;22.60;50.30;;;;;;5021396;28;20034;-69